Terminal Aerodrome Forecast
Issued by NWS Sterling, VA

Current Version | Previous Version | Graphics & Text | Print | Product List | Glossary On
Versions: 1 2 3 4 5 6 7 8 9 10 11 12 13 14 15 16 17
000
FTUS41 KLWX 151129
TAFMRB
TAF
KMRB 151129Z 1512/1612 33004KT 5SM BR BKN005
     FM151230 33005KT P6SM SCT008 BKN080
     FM151300 33006KT P6SM SCT120
     FM160000 00000KT P6SM BKN200=

USA.gov is the U.S. government's official web portal to all federal, state and local government web resources and services.